sensor_id;sensor_type;location;lat;lon;timestamp;pressure;altitude;pressure_sealevel;temperature;humidity
74613;BME280;63119;51.788;8.824;2023-04-23T00:00:03;99210.66;;;15.04;80.17
74613;BME280;63119;51.788;8.824;2023-04-23T00:02:32;99208.19;;;14.93;80.43
74613;BME280;63119;51.788;8.824;2023-04-23T00:05:01;99204.31;;;14.88;80.94
74613;BME280;63119;51.788;8.824;2023-04-23T00:07:29;99209.78;;;14.86;80.80
74613;BME280;63119;51.788;8.824;2023-04-23T00:09:56;99205.16;;;14.88;81.20
74613;BME280;63119;51.788;8.824;2023-04-23T00:12:22;99204.59;;;14.85;81.54
74613;BME280;63119;51.788;8.824;2023-04-23T00:14:47;99205.16;;;14.88;81.31
74613;BME280;63119;51.788;8.824;2023-04-23T00:17:13;99204.84;;;14.91;81.29
74613;BME280;63119;51.788;8.824;2023-04-23T00:19:38;99194.72;;;14.95;81.01
74613;BME280;63119;51.788;8.824;2023-04-23T00:22:03;99203.88;;;15.10;80.51
74613;BME280;63119;51.788;8.824;2023-04-23T00:24:28;99198.66;;;14.91;81.21
74613;BME280;63119;51.788;8.824;2023-04-23T00:26:55;99202.09;;;14.83;82.01
74613;BME280;63119;51.788;8.824;2023-04-23T00:29:21;99207.72;;;14.80;81.72
74613;BME280;63119;51.788;8.824;2023-04-23T00:31:46;99198.94;;;14.70;82.42
74613;BME280;63119;51.788;8.824;2023-04-23T00:34:11;99206.16;;;14.60;83.28
74613;BME280;63119;51.788;8.824;2023-04-23T00:36:36;99201.38;;;14.63;83.09
74613;BME280;63119;51.788;8.824;2023-04-23T00:39:02;99202.22;;;14.64;83.19
74613;BME280;63119;51.788;8.824;2023-04-23T00:41:27;99199.63;;;14.45;84.00
74613;BME280;63119;51.788;8.824;2023-04-23T00:43:53;99193.88;;;14.49;83.08
74613;BME280;63119;51.788;8.824;2023-04-23T00:46:18;99206.44;;;14.57;82.95
74613;BME280;63119;51.788;8.824;2023-04-23T00:48:44;99195.13;;;14.55;82.79
74613;BME280;63119;51.788;8.824;2023-04-23T00:51:10;99192.59;;;14.53;83.39
74613;BME280;63119;51.788;8.824;2023-04-23T00:53:36;99193.38;;;14.63;82.94
74613;BME280;63119;51.788;8.824;2023-04-23T00:56:03;99203.19;;;14.63;82.80
74613;BME280;63119;51.788;8.824;2023-04-23T00:58:29;99197.69;;;14.47;84.53
74613;BME280;63119;51.788;8.824;2023-04-23T01:00:55;99196.53;;;14.49;83.43
74613;BME280;63119;51.788;8.824;2023-04-23T01:03:21;99198.06;;;14.52;84.22
74613;BME280;63119;51.788;8.824;2023-04-23T01:05:47;99191.66;;;14.45;84.24
74613;BME280;63119;51.788;8.824;2023-04-23T01:08:15;99186.91;;;14.39;84.97
74613;BME280;63119;51.788;8.824;2023-04-23T01:10:44;99188.31;;;14.43;84.71
74613;BME280;63119;51.788;8.824;2023-04-23T01:13:11;99187.22;;;14.26;84.98
74613;BME280;63119;51.788;8.824;2023-04-23T01:15:37;99186.28;;;14.17;85.69
74613;BME280;63119;51.788;8.824;2023-04-23T01:18:02;99181.38;;;14.22;85.70
74613;BME280;63119;51.788;8.824;2023-04-23T01:20:28;99185.84;;;14.22;85.55
74613;BME280;63119;51.788;8.824;2023-04-23T01:22:54;99180.28;;;14.15;85.48
74613;BME280;63119;51.788;8.824;2023-04-23T01:25:20;99188.41;;;14.04;85.53
74613;BME280;63119;51.788;8.824;2023-04-23T01:27:45;99183.66;;;14.08;85.56
74613;BME280;63119;51.788;8.824;2023-04-23T01:30:11;99182.06;;;14.24;84.90
74613;BME280;63119;51.788;8.824;2023-04-23T01:32:37;99187.50;;;14.33;84.27
74613;BME280;63119;51.788;8.824;2023-04-23T01:35:03;99183.75;;;14.26;84.49
74613;BME280;63119;51.788;8.824;2023-04-23T01:37:29;99180.25;;;14.35;84.59
74613;BME280;63119;51.788;8.824;2023-04-23T01:39:54;99185.84;;;14.22;84.83
74613;BME280;63119;51.788;8.824;2023-04-23T01:42:20;99190.63;;;14.18;84.55
74613;BME280;63119;51.788;8.824;2023-04-23T01:44:47;99191.22;;;14.12;85.51
74613;BME280;63119;51.788;8.824;2023-04-23T01:47:12;99196.97;;;13.98;84.98
74613;BME280;63119;51.788;8.824;2023-04-23T01:49:38;99200.38;;;13.91;84.24
74613;BME280;63119;51.788;8.824;2023-04-23T01:52:03;99195.91;;;13.82;83.94
74613;BME280;63119;51.788;8.824;2023-04-23T01:54:28;99194.41;;;13.69;84.00
74613;BME280;63119;51.788;8.824;2023-04-23T01:56:53;99203.81;;;13.54;83.92
74613;BME280;63119;51.788;8.824;2023-04-23T01:59:20;99204.66;;;13.55;83.47
74613;BME280;63119;51.788;8.824;2023-04-23T02:01:46;99204.38;;;13.39;83.79
74613;BME280;63119;51.788;8.824;2023-04-23T02:04:13;99211.91;;;13.53;83.35
74613;BME280;63119;51.788;8.824;2023-04-23T02:06:40;99217.94;;;13.36;84.18
74613;BME280;63119;51.788;8.824;2023-04-23T02:09:06;99203.41;;;13.30;84.13
74613;BME280;63119;51.788;8.824;2023-04-23T02:11:31;99213.47;;;13.27;83.19
74613;BME280;63119;51.788;8.824;2023-04-23T02:13:57;99206.47;;;13.26;83.45
74613;BME280;63119;51.788;8.824;2023-04-23T02:16:22;99213.34;;;13.19;83.03
74613;BME280;63119;51.788;8.824;2023-04-23T02:18:48;99211.66;;;13.18;82.37
74613;BME280;63119;51.788;8.824;2023-04-23T02:21:14;99210.13;;;13.25;81.93
74613;BME280;63119;51.788;8.824;2023-04-23T02:23:39;99207.75;;;13.22;80.99
74613;BME280;63119;51.788;8.824;2023-04-23T02:26:04;99213.16;;;13.10;82.14
74613;BME280;63119;51.788;8.824;2023-04-23T02:28:30;99208.16;;;13.17;81.40
74613;BME280;63119;51.788;8.824;2023-04-23T02:30:55;99213.69;;;13.04;80.56
74613;BME280;63119;51.788;8.824;2023-04-23T02:33:21;99209.22;;;13.05;80.43
74613;BME280;63119;51.788;8.824;2023-04-23T02:35:46;99211.03;;;12.85;80.88
74613;BME280;63119;51.788;8.824;2023-04-23T02:38:11;99206.72;;;12.94;80.24
74613;BME280;63119;51.788;8.824;2023-04-23T02:40:36;99208.09;;;12.88;79.70
74613;BME280;63119;51.788;8.824;2023-04-23T02:43:02;99216.31;;;12.76;80.29
74613;BME280;63119;51.788;8.824;2023-04-23T02:45:27;99219.13;;;12.84;80.66
74613;BME280;63119;51.788;8.824;2023-04-23T02:47:52;99226.50;;;12.80;80.40
74613;BME280;63119;51.788;8.824;2023-04-23T02:50:18;99221.22;;;12.90;79.93
74613;BME280;63119;51.788;8.824;2023-04-23T02:52:43;99225.00;;;12.87;79.47
74613;BME280;63119;51.788;8.824;2023-04-23T02:55:08;99225.53;;;12.81;79.77
74613;BME280;63119;51.788;8.824;2023-04-23T02:57:34;99223.31;;;12.86;79.35
74613;BME280;63119;51.788;8.824;2023-04-23T03:00:00;99224.59;;;12.82;79.63
74613;BME280;63119;51.788;8.824;2023-04-23T03:02:25;99226.22;;;12.64;80.11
74613;BME280;63119;51.788;8.824;2023-04-23T03:04:51;99228.47;;;12.78;79.60
74613;BME280;63119;51.788;8.824;2023-04-23T03:07:16;99225.66;;;12.80;79.58
74613;BME280;63119;51.788;8.824;2023-04-23T03:09:42;99223.56;;;12.64;80.03
74613;BME280;63119;51.788;8.824;2023-04-23T03:12:07;99230.81;;;12.62;79.56
74613;BME280;63119;51.788;8.824;2023-04-23T03:14:32;99232.19;;;12.56;80.16
74613;BME280;63119;51.788;8.824;2023-04-23T03:16:57;99250.25;;;12.72;79.46
74613;BME280;63119;51.788;8.824;2023-04-23T03:19:23;99248.56;;;12.71;79.32
74613;BME280;63119;51.788;8.824;2023-04-23T03:21:49;99254.41;;;12.65;79.12
74613;BME280;63119;51.788;8.824;2023-04-23T03:24:14;99260.53;;;12.56;80.27
74613;BME280;63119;51.788;8.824;2023-04-23T03:26:40;99262.06;;;12.58;79.46
74613;BME280;63119;51.788;8.824;2023-04-23T03:29:06;99272.00;;;12.56;78.68
74613;BME280;63119;51.788;8.824;2023-04-23T03:31:31;99267.22;;;12.50;79.50
74613;BME280;63119;51.788;8.824;2023-04-23T03:33:56;99267.91;;;12.43;78.80
74613;BME280;63119;51.788;8.824;2023-04-23T03:36:22;99260.09;;;12.51;78.97
74613;BME280;63119;51.788;8.824;2023-04-23T03:38:47;99268.03;;;12.41;79.19
74613;BME280;63119;51.788;8.824;2023-04-23T03:41:12;99270.34;;;12.35;79.64
74613;BME280;63119;51.788;8.824;2023-04-23T03:43:37;99271.78;;;12.39;79.59
74613;BME280;63119;51.788;8.824;2023-04-23T03:46:03;99270.81;;;12.40;78.83
74613;BME280;63119;51.788;8.824;2023-04-23T03:48:28;99266.59;;;12.37;79.15
74613;BME280;63119;51.788;8.824;2023-04-23T03:50:54;99273.63;;;12.48;78.70
74613;BME280;63119;51.788;8.824;2023-04-23T03:53:19;99269.78;;;12.31;79.08
74613;BME280;63119;51.788;8.824;2023-04-23T03:55:44;99267.28;;;12.30;78.55
74613;BME280;63119;51.788;8.824;2023-04-23T03:58:09;99261.69;;;12.33;79.13
74613;BME280;63119;51.788;8.824;2023-04-23T04:00:35;99261.28;;;12.37;78.33
74613;BME280;63119;51.788;8.824;2023-04-23T04:03:00;99263.81;;;12.39;78.74
74613;BME280;63119;51.788;8.824;2023-04-23T04:05:26;99264.41;;;12.42;78.63
74613;BME280;63119;51.788;8.824;2023-04-23T04:07:52;99266.06;;;12.43;79.00
74613;BME280;63119;51.788;8.824;2023-04-23T04:10:17;99262.88;;;12.49;78.34
74613;BME280;63119;51.788;8.824;2023-04-23T04:12:42;99265.25;;;12.43;78.39
74613;BME280;63119;51.788;8.824;2023-04-23T04:15:10;99267.63;;;12.46;78.62
74613;BME280;63119;51.788;8.824;2023-04-23T04:17:35;99260.91;;;12.42;78.28
74613;BME280;63119;51.788;8.824;2023-04-23T04:20:00;99271.94;;;12.47;78.26
74613;BME280;63119;51.788;8.824;2023-04-23T04:22:25;99258.84;;;12.45;78.34
74613;BME280;63119;51.788;8.824;2023-04-23T04:24:51;99268.34;;;12.48;78.39
74613;BME280;63119;51.788;8.824;2023-04-23T04:27:17;99262.44;;;12.44;78.58
74613;BME280;63119;51.788;8.824;2023-04-23T04:29:42;99262.50;;;12.54;78.63
74613;BME280;63119;51.788;8.824;2023-04-23T04:32:08;99258.88;;;12.55;78.79
74613;BME280;63119;51.788;8.824;2023-04-23T04:34:33;99263.59;;;12.51;78.08
74613;BME280;63119;51.788;8.824;2023-04-23T04:37:00;99261.88;;;12.41;78.81
74613;BME280;63119;51.788;8.824;2023-04-23T04:39:25;99265.69;;;12.48;79.11
74613;BME280;63119;51.788;8.824;2023-04-23T04:41:51;99262.34;;;12.25;79.60
74613;BME280;63119;51.788;8.824;2023-04-23T04:44:16;99257.41;;;12.11;79.97
74613;BME280;63119;51.788;8.824;2023-04-23T04:46:42;99263.31;;;11.94;81.20
74613;BME280;63119;51.788;8.824;2023-04-23T04:49:08;99275.38;;;12.07;81.41
74613;BME280;63119;51.788;8.824;2023-04-23T04:51:34;99267.34;;;11.88;82.22
74613;BME280;63119;51.788;8.824;2023-04-23T04:54:00;99263.75;;;11.78;82.54
74613;BME280;63119;51.788;8.824;2023-04-23T04:56:25;99257.03;;;11.74;82.68
74613;BME280;63119;51.788;8.824;2023-04-23T04:58:50;99262.41;;;11.84;82.96
74613;BME280;63119;51.788;8.824;2023-04-23T05:01:16;99263.84;;;11.88;82.26
74613;BME280;63119;51.788;8.824;2023-04-23T05:03:42;99259.63;;;11.85;82.94
74613;BME280;63119;51.788;8.824;2023-04-23T05:06:08;99268.03;;;11.90;82.65
74613;BME280;63119;51.788;8.824;2023-04-23T05:08:33;99265.25;;;12.13;81.30
74613;BME280;63119;51.788;8.824;2023-04-23T05:10:59;99275.25;;;12.09;81.44
74613;BME280;63119;51.788;8.824;2023-04-23T05:13:24;99270.16;;;11.96;81.32
74613;BME280;63119;51.788;8.824;2023-04-23T05:15:50;99277.53;;;11.93;82.06
74613;BME280;63119;51.788;8.824;2023-04-23T05:18:15;99275.38;;;11.66;82.74
74613;BME280;63119;51.788;8.824;2023-04-23T05:20:40;99270.44;;;11.62;83.81
74613;BME280;63119;51.788;8.824;2023-04-23T05:23:06;99274.44;;;11.56;83.05
74613;BME280;63119;51.788;8.824;2023-04-23T05:25:32;99274.09;;;11.49;84.52
74613;BME280;63119;51.788;8.824;2023-04-23T05:27:58;99269.41;;;11.53;84.48
74613;BME280;63119;51.788;8.824;2023-04-23T05:30:24;99266.63;;;11.55;84.21
74613;BME280;63119;51.788;8.824;2023-04-23T05:32:49;99259.75;;;11.52;84.77
74613;BME280;63119;51.788;8.824;2023-04-23T05:35:14;99258.53;;;11.56;83.45
74613;BME280;63119;51.788;8.824;2023-04-23T05:37:40;99254.16;;;11.66;82.72
74613;BME280;63119;51.788;8.824;2023-04-23T05:40:06;99265.13;;;11.73;83.30
74613;BME280;63119;51.788;8.824;2023-04-23T05:42:33;99268.09;;;11.79;83.00
74613;BME280;63119;51.788;8.824;2023-04-23T05:44:58;99274.19;;;11.91;81.96
74613;BME280;63119;51.788;8.824;2023-04-23T05:47:24;99270.78;;;12.30;80.62
74613;BME280;63119;51.788;8.824;2023-04-23T05:49:50;99268.91;;;12.51;79.75
74613;BME280;63119;51.788;8.824;2023-04-23T05:52:15;99268.94;;;13.01;78.67
74613;BME280;63119;51.788;8.824;2023-04-23T05:54:41;99270.53;;;12.73;79.00
74613;BME280;63119;51.788;8.824;2023-04-23T05:57:06;99269.13;;;12.39;80.37
74613;BME280;63119;51.788;8.824;2023-04-23T05:59:32;99269.94;;;12.30;79.38
74613;BME280;63119;51.788;8.824;2023-04-23T06:01:58;99275.28;;;12.39;80.29
74613;BME280;63119;51.788;8.824;2023-04-23T06:04:23;99279.66;;;12.50;79.50
74613;BME280;63119;51.788;8.824;2023-04-23T06:06:48;99271.38;;;12.43;79.62
74613;BME280;63119;51.788;8.824;2023-04-23T06:09:14;99275.31;;;12.49;79.95
74613;BME280;63119;51.788;8.824;2023-04-23T06:11:39;99261.78;;;13.01;78.47
74613;BME280;63119;51.788;8.824;2023-04-23T06:14:04;99260.59;;;12.75;79.24
74613;BME280;63119;51.788;8.824;2023-04-23T06:16:30;99263.66;;;12.71;79.51
74613;BME280;63119;51.788;8.824;2023-04-23T06:18:55;99259.16;;;12.52;80.01
74613;BME280;63119;51.788;8.824;2023-04-23T06:21:21;99267.13;;;13.11;78.87
74613;BME280;63119;51.788;8.824;2023-04-23T06:23:47;99259.13;;;12.92;78.69
74613;BME280;63119;51.788;8.824;2023-04-23T06:26:12;99264.09;;;13.35;76.55
74613;BME280;63119;51.788;8.824;2023-04-23T06:28:37;99268.03;;;13.40;76.63
74613;BME280;63119;51.788;8.824;2023-04-23T06:31:04;99258.13;;;14.17;73.79
74613;BME280;63119;51.788;8.824;2023-04-23T06:33:29;99257.81;;;14.40;73.13
74613;BME280;63119;51.788;8.824;2023-04-23T06:35:55;99253.81;;;14.81;71.30
74613;BME280;63119;51.788;8.824;2023-04-23T06:38:20;99247.75;;;14.88;69.97
74613;BME280;63119;51.788;8.824;2023-04-23T06:40:47;99246.28;;;14.49;71.66
74613;BME280;63119;51.788;8.824;2023-04-23T06:43:12;99243.44;;;15.05;70.56
74613;BME280;63119;51.788;8.824;2023-04-23T06:45:38;99245.25;;;15.67;68.24
74613;BME280;63119;51.788;8.824;2023-04-23T06:48:05;99243.09;;;15.70;65.78
74613;BME280;63119;51.788;8.824;2023-04-23T06:50:31;99251.31;;;15.24;67.03
74613;BME280;63119;51.788;8.824;2023-04-23T06:52:56;99242.50;;;16.02;66.10
74613;BME280;63119;51.788;8.824;2023-04-23T06:55:22;99239.19;;;16.60;63.79
74613;BME280;63119;51.788;8.824;2023-04-23T06:57:51;99240.94;;;16.85;61.70
74613;BME280;63119;51.788;8.824;2023-04-23T07:00:16;99235.28;;;16.20;61.36
74613;BME280;63119;51.788;8.824;2023-04-23T07:02:41;99228.22;;;15.85;61.96
74613;BME280;63119;51.788;8.824;2023-04-23T07:05:07;99229.81;;;15.78;62.75
74613;BME280;63119;51.788;8.824;2023-04-23T07:07:32;99224.88;;;15.30;64.79
74613;BME280;63119;51.788;8.824;2023-04-23T07:10:00;99216.28;;;15.37;61.56
74613;BME280;63119;51.788;8.824;2023-04-23T07:12:25;99221.13;;;14.88;58.48
74613;BME280;63119;51.788;8.824;2023-04-23T07:14:51;99222.69;;;14.81;58.76
74613;BME280;63119;51.788;8.824;2023-04-23T07:17:18;99224.41;;;15.00;58.88
74613;BME280;63119;51.788;8.824;2023-04-23T07:19:43;99221.09;;;15.51;59.33
74613;BME280;63119;51.788;8.824;2023-04-23T07:22:08;99212.47;;;15.39;57.40
74613;BME280;63119;51.788;8.824;2023-04-23T07:24:34;99222.81;;;14.89;58.66
74613;BME280;63119;51.788;8.824;2023-04-23T07:26:59;99216.72;;;15.14;56.63
74613;BME280;63119;51.788;8.824;2023-04-23T07:29:25;99222.97;;;15.76;57.77
74613;BME280;63119;51.788;8.824;2023-04-23T07:31:50;99222.84;;;15.60;56.11
74613;BME280;63119;51.788;8.824;2023-04-23T07:34:15;99214.97;;;15.76;57.07
74613;BME280;63119;51.788;8.824;2023-04-23T07:36:40;99208.94;;;17.01;54.19
74613;BME280;63119;51.788;8.824;2023-04-23T07:39:06;99211.28;;;16.96;51.49
74613;BME280;63119;51.788;8.824;2023-04-23T07:41:31;99210.53;;;17.60;50.56
74613;BME280;63119;51.788;8.824;2023-04-23T07:43:57;99208.66;;;17.85;50.62
74613;BME280;63119;51.788;8.824;2023-04-23T07:46:22;99200.75;;;18.24;50.58
74613;BME280;63119;51.788;8.824;2023-04-23T07:48:47;99200.97;;;17.82;50.24
74613;BME280;63119;51.788;8.824;2023-04-23T07:51:12;99198.41;;;18.21;50.45
74613;BME280;63119;51.788;8.824;2023-04-23T07:53:38;99201.91;;;18.29;48.99
74613;BME280;63119;51.788;8.824;2023-04-23T07:56:03;99196.63;;;17.89;50.71
74613;BME280;63119;51.788;8.824;2023-04-23T07:58:28;99195.59;;;18.06;49.99
74613;BME280;63119;51.788;8.824;2023-04-23T08:00:54;99201.00;;;17.74;51.00
74613;BME280;63119;51.788;8.824;2023-04-23T08:03:19;99191.56;;;18.10;50.15
74613;BME280;63119;51.788;8.824;2023-04-23T08:05:44;99193.94;;;17.97;51.02
74613;BME280;63119;51.788;8.824;2023-04-23T08:08:10;99192.84;;;18.38;50.99
74613;BME280;63119;51.788;8.824;2023-04-23T08:10:36;99186.66;;;18.77;50.44
74613;BME280;63119;51.788;8.824;2023-04-23T08:13:01;99185.81;;;19.07;49.50
74613;BME280;63119;51.788;8.824;2023-04-23T08:15:26;99186.22;;;18.96;49.50
74613;BME280;63119;51.788;8.824;2023-04-23T08:17:51;99182.22;;;18.92;49.99
74613;BME280;63119;51.788;8.824;2023-04-23T08:20:17;99188.84;;;18.73;50.02
74613;BME280;63119;51.788;8.824;2023-04-23T08:22:42;99185.63;;;19.31;50.51
74613;BME280;63119;51.788;8.824;2023-04-23T08:25:08;99182.09;;;19.76;48.05
74613;BME280;63119;51.788;8.824;2023-04-23T08:27:33;99174.34;;;19.67;47.06
74613;BME280;63119;51.788;8.824;2023-04-23T08:29:58;99177.38;;;19.63;48.24
74613;BME280;63119;51.788;8.824;2023-04-23T08:32:24;99176.72;;;19.61;49.12
74613;BME280;63119;51.788;8.824;2023-04-23T08:34:49;99174.78;;;19.25;48.86
74613;BME280;63119;51.788;8.824;2023-04-23T08:37:14;99175.31;;;18.67;49.54
74613;BME280;63119;51.788;8.824;2023-04-23T08:39:40;99175.41;;;19.57;50.13
74613;BME280;63119;51.788;8.824;2023-04-23T08:42:37;99168.72;;;19.53;48.88
74613;BME280;63119;51.788;8.824;2023-04-23T08:45:06;99172.69;;;19.95;47.78
74613;BME280;63119;51.788;8.824;2023-04-23T08:47:31;99173.84;;;20.15;48.48
74613;BME280;63119;51.788;8.824;2023-04-23T08:49:58;99164.47;;;19.96;48.25
74613;BME280;63119;51.788;8.824;2023-04-23T08:52:25;99169.78;;;20.48;46.52
74613;BME280;63119;51.788;8.824;2023-04-23T08:54:59;99167.34;;;20.53;45.38
74613;BME280;63119;51.788;8.824;2023-04-23T08:57:25;99161.41;;;20.14;46.43
74613;BME280;63119;51.788;8.824;2023-04-23T08:59:51;99161.63;;;20.42;47.14
74613;BME280;63119;51.788;8.824;2023-04-23T09:02:16;99162.25;;;20.00;47.39
74613;BME280;63119;51.788;8.824;2023-04-23T09:04:44;99158.22;;;20.84;47.59
74613;BME280;63119;51.788;8.824;2023-04-23T09:07:09;99162.72;;;20.18;46.47
74613;BME280;63119;51.788;8.824;2023-04-23T09:09:38;99160.31;;;19.11;48.99
74613;BME280;63119;51.788;8.824;2023-04-23T09:12:05;99151.19;;;19.20;50.25
74613;BME280;63119;51.788;8.824;2023-04-23T09:14:31;99155.50;;;19.29;49.39
74613;BME280;63119;51.788;8.824;2023-04-23T09:16:56;99150.91;;;19.60;50.05
74613;BME280;63119;51.788;8.824;2023-04-23T09:19:24;99154.09;;;19.41;49.86
74613;BME280;63119;51.788;8.824;2023-04-23T09:21:52;99145.41;;;20.21;48.21
74613;BME280;63119;51.788;8.824;2023-04-23T09:24:17;99140.97;;;20.42;47.88
74613;BME280;63119;51.788;8.824;2023-04-23T09:26:44;99140.47;;;20.53;45.53
74613;BME280;63119;51.788;8.824;2023-04-23T09:29:19;99131.91;;;20.64;45.20
74613;BME280;63119;51.788;8.824;2023-04-23T09:31:46;99123.66;;;21.02;43.94
74613;BME280;63119;51.788;8.824;2023-04-23T09:34:14;99136.47;;;21.00;43.71
74613;BME280;63119;51.788;8.824;2023-04-23T09:36:42;99124.56;;;20.88;44.32
74613;BME280;63119;51.788;8.824;2023-04-23T09:39:11;99120.00;;;20.88;44.05
74613;BME280;63119;51.788;8.824;2023-04-23T09:41:37;99124.50;;;21.02;44.78
74613;BME280;63119;51.788;8.824;2023-04-23T09:44:02;99123.16;;;21.13;44.50
74613;BME280;63119;51.788;8.824;2023-04-23T09:46:32;99122.81;;;21.01;43.93
74613;BME280;63119;51.788;8.824;2023-04-23T09:49:01;99129.19;;;19.85;45.01
74613;BME280;63119;51.788;8.824;2023-04-23T09:51:28;99137.69;;;19.88;46.01
74613;BME280;63119;51.788;8.824;2023-04-23T09:53:53;99120.31;;;19.47;46.12
74613;BME280;63119;51.788;8.824;2023-04-23T09:56:19;99122.22;;;19.38;46.74
74613;BME280;63119;51.788;8.824;2023-04-23T09:58:45;99126.88;;;19.44;47.39
74613;BME280;63119;51.788;8.824;2023-04-23T10:01:10;99128.03;;;19.64;47.53
74613;BME280;63119;51.788;8.824;2023-04-23T10:03:41;99131.50;;;20.02;46.78
74613;BME280;63119;51.788;8.824;2023-04-23T10:06:06;99129.09;;;19.93;45.15
74613;BME280;63119;51.788;8.824;2023-04-23T10:08:32;99128.03;;;19.64;45.49
74613;BME280;63119;51.788;8.824;2023-04-23T10:10:57;99117.72;;;19.31;47.35
74613;BME280;63119;51.788;8.824;2023-04-23T10:13:22;99121.63;;;19.28;47.37
74613;BME280;63119;51.788;8.824;2023-04-23T10:15:48;99126.25;;;19.34;47.05
74613;BME280;63119;51.788;8.824;2023-04-23T10:18:13;99116.38;;;19.57;47.28
74613;BME280;63119;51.788;8.824;2023-04-23T10:20:39;99111.31;;;19.92;46.43
74613;BME280;63119;51.788;8.824;2023-04-23T10:23:07;99110.66;;;19.90;46.16
74613;BME280;63119;51.788;8.824;2023-04-23T10:25:34;99107.66;;;19.70;45.21
74613;BME280;63119;51.788;8.824;2023-04-23T10:28:00;99103.97;;;19.71;45.30
74613;BME280;63119;51.788;8.824;2023-04-23T10:30:27;99110.28;;;20.22;45.91
74613;BME280;63119;51.788;8.824;2023-04-23T10:32:52;99110.13;;;20.38;44.11
74613;BME280;63119;51.788;8.824;2023-04-23T10:35:18;99103.81;;;20.02;45.11
74613;BME280;63119;51.788;8.824;2023-04-23T10:37:44;99103.53;;;20.41;43.39
74613;BME280;63119;51.788;8.824;2023-04-23T10:40:13;99110.28;;;20.51;44.17
74613;BME280;63119;51.788;8.824;2023-04-23T10:42:39;99103.22;;;20.50;44.16
74613;BME280;63119;51.788;8.824;2023-04-23T10:45:15;99099.66;;;20.29;44.46
74613;BME280;63119;51.788;8.824;2023-04-23T10:47:44;99088.69;;;20.45;43.97
74613;BME280;63119;51.788;8.824;2023-04-23T10:50:22;99098.81;;;19.99;44.59
74613;BME280;63119;51.788;8.824;2023-04-23T10:52:48;99103.72;;;19.95;44.65
74613;BME280;63119;51.788;8.824;2023-04-23T10:55:19;99095.94;;;19.86;44.28
74613;BME280;63119;51.788;8.824;2023-04-23T10:58:06;99091.59;;;19.85;44.64
74613;BME280;63119;51.788;8.824;2023-04-23T11:03:30;99086.50;;;19.38;45.67
74613;BME280;63119;51.788;8.824;2023-04-23T11:06:01;99091.03;;;19.37;45.65
74613;BME280;63119;51.788;8.824;2023-04-23T11:08:32;99096.34;;;19.00;52.39
74613;BME280;63119;51.788;8.824;2023-04-23T11:11:00;99113.44;;;18.07;53.69
74613;BME280;63119;51.788;8.824;2023-04-23T11:13:26;99091.06;;;17.91;54.55
74613;BME280;63119;51.788;8.824;2023-04-23T11:16:11;99101.53;;;18.17;58.41
74613;BME280;63119;51.788;8.824;2023-04-23T11:18:56;99092.19;;;18.75;60.61
74613;BME280;63119;51.788;8.824;2023-04-23T11:21:22;99094.50;;;19.23;58.71
74613;BME280;63119;51.788;8.824;2023-04-23T11:24:07;99090.53;;;19.56;60.07
74613;BME280;63119;51.788;8.824;2023-04-23T11:26:33;99089.97;;;19.61;58.59
74613;BME280;63119;51.788;8.824;2023-04-23T11:28:58;99080.44;;;19.58;57.57
74613;BME280;63119;51.788;8.824;2023-04-23T11:31:25;99081.06;;;19.46;56.48
74613;BME280;63119;51.788;8.824;2023-04-23T11:33:50;99080.25;;;19.23;56.55
74613;BME280;63119;51.788;8.824;2023-04-23T11:36:16;99083.88;;;19.52;54.64
74613;BME280;63119;51.788;8.824;2023-04-23T11:38:41;99077.72;;;19.67;50.91
74613;BME280;63119;51.788;8.824;2023-04-23T11:41:06;99076.56;;;20.19;48.02
74613;BME280;63119;51.788;8.824;2023-04-23T11:43:31;99074.38;;;19.94;47.30
74613;BME280;63119;51.788;8.824;2023-04-23T11:45:59;99069.56;;;19.75;46.36
74613;BME280;63119;51.788;8.824;2023-04-23T11:48:24;99067.16;;;20.09;48.11
74613;BME280;63119;51.788;8.824;2023-04-23T11:50:51;99061.59;;;19.96;47.09
74613;BME280;63119;51.788;8.824;2023-04-23T11:53:16;99056.59;;;19.93;45.29
74613;BME280;63119;51.788;8.824;2023-04-23T11:55:41;99050.03;;;19.66;48.68
74613;BME280;63119;51.788;8.824;2023-04-23T11:58:08;99052.81;;;19.73;46.48
74613;BME280;63119;51.788;8.824;2023-04-23T12:00:34;99061.50;;;19.45;45.73
74613;BME280;63119;51.788;8.824;2023-04-23T12:03:00;99059.97;;;19.43;48.20
74613;BME280;63119;51.788;8.824;2023-04-23T12:05:29;99069.81;;;19.50;48.65
74613;BME280;63119;51.788;8.824;2023-04-23T12:08:11;99063.06;;;19.54;47.35
74613;BME280;63119;51.788;8.824;2023-04-23T12:10:45;99061.19;;;19.40;49.14
74613;BME280;63119;51.788;8.824;2023-04-23T12:13:15;99061.50;;;19.37;47.20
74613;BME280;63119;51.788;8.824;2023-04-23T12:15:48;99052.34;;;19.32;45.07
74613;BME280;63119;51.788;8.824;2023-04-23T12:18:15;99044.72;;;19.58;44.01
74613;BME280;63119;51.788;8.824;2023-04-23T12:20:41;99044.28;;;19.84;43.65
74613;BME280;63119;51.788;8.824;2023-04-23T12:23:06;99045.41;;;20.25;42.14
74613;BME280;63119;51.788;8.824;2023-04-23T12:25:32;99035.97;;;20.65;42.20
74613;BME280;63119;51.788;8.824;2023-04-23T12:27:59;99027.81;;;20.73;40.24
74613;BME280;63119;51.788;8.824;2023-04-23T12:30:28;99032.97;;;20.75;41.25
74613;BME280;63119;51.788;8.824;2023-04-23T12:33:00;99035.44;;;20.55;39.92
74613;BME280;63119;51.788;8.824;2023-04-23T12:35:39;99028.09;;;20.42;39.71
74613;BME280;63119;51.788;8.824;2023-04-23T12:38:05;99026.97;;;20.73;42.33
74613;BME280;63119;51.788;8.824;2023-04-23T12:40:31;99028.47;;;19.37;40.26
74613;BME280;63119;51.788;8.824;2023-04-23T12:42:57;99027.63;;;19.44;41.17
74613;BME280;63119;51.788;8.824;2023-04-23T12:45:22;99034.03;;;19.35;44.16
74613;BME280;63119;51.788;8.824;2023-04-23T12:47:47;99044.81;;;18.44;48.11
74613;BME280;63119;51.788;8.824;2023-04-23T12:50:12;99039.06;;;17.86;52.25
74613;BME280;63119;51.788;8.824;2023-04-23T12:52:38;99052.53;;;17.45;53.61
74613;BME280;63119;51.788;8.824;2023-04-23T12:55:03;99043.22;;;17.25;55.82
74613;BME280;63119;51.788;8.824;2023-04-23T12:57:29;99041.69;;;17.31;55.30